sensor_id;sensor_type;location;lat;lon;timestamp;P1;durP1;ratioP1;P2;durP2;ratioP2
8544;SDS011;4310;51.054;6.994;2022-10-16T00:00:56;35.55;;;33.85;;
8544;SDS011;4310;51.054;6.994;2022-10-16T00:01:59;33.88;;;32.20;;
8544;SDS011;4310;51.054;6.994;2022-10-16T00:03:04;35.83;;;34.15;;
8544;SDS011;4310;51.054;6.994;2022-10-16T00:04:08;34.45;;;32.85;;
8544;SDS011;4310;51.054;6.994;2022-10-16T00:05:12;33.15;;;31.57;;
8544;SDS011;4310;51.054;6.994;2022-10-16T00:06:16;34.90;;;33.20;;
8544;SDS011;4310;51.054;6.994;2022-10-16T00:07:20;35.93;;;34.33;;
8544;SDS011;4310;51.054;6.994;2022-10-16T00:08:24;35.55;;;33.83;;
8544;SDS011;4310;51.054;6.994;2022-10-16T00:09:28;35.40;;;33.90;;
8544;SDS011;4310;51.054;6.994;2022-10-16T00:10:31;35.70;;;34.00;;
8544;SDS011;4310;51.054;6.994;2022-10-16T00:11:36;36.08;;;34.48;;
8544;SDS011;4310;51.054;6.994;2022-10-16T00:12:40;38.13;;;36.33;;
8544;SDS011;4310;51.054;6.994;2022-10-16T00:13:45;36.85;;;35.15;;
8544;SDS011;4310;51.054;6.994;2022-10-16T00:14:49;38.83;;;36.93;;
8544;SDS011;4310;51.054;6.994;2022-10-16T00:15:54;37.88;;;36.17;;
8544;SDS011;4310;51.054;6.994;2022-10-16T00:16:58;39.20;;;37.15;;
8544;SDS011;4310;51.054;6.994;2022-10-16T00:18:02;36.05;;;34.45;;
8544;SDS011;4310;51.054;6.994;2022-10-16T00:19:06;37.25;;;35.58;;
8544;SDS011;4310;51.054;6.994;2022-10-16T00:20:10;34.53;;;33.02;;
8544;SDS011;4310;51.054;6.994;2022-10-16T00:22:25;33.15;;;31.65;;
8544;SDS011;4310;51.054;6.994;2022-10-16T00:23:29;31.50;;;30.10;;
8544;SDS011;4310;51.054;6.994;2022-10-16T00:24:32;28.85;;;27.58;;
8544;SDS011;4310;51.054;6.994;2022-10-16T00:25:36;29.00;;;27.67;;
8544;SDS011;4310;51.054;6.994;2022-10-16T00:26:40;25.65;;;24.55;;
8544;SDS011;4310;51.054;6.994;2022-10-16T00:27:43;26.10;;;24.90;;
8544;SDS011;4310;51.054;6.994;2022-10-16T00:28:47;24.90;;;23.90;;
8544;SDS011;4310;51.054;6.994;2022-10-16T00:29:52;23.10;;;22.10;;
8544;SDS011;4310;51.054;6.994;2022-10-16T00:30:55;21.02;;;20.17;;
8544;SDS011;4310;51.054;6.994;2022-10-16T00:31:59;19.67;;;18.77;;
8544;SDS011;4310;51.054;6.994;2022-10-16T00:33:03;20.72;;;19.82;;
8544;SDS011;4310;51.054;6.994;2022-10-16T00:34:07;19.92;;;18.92;;
8544;SDS011;4310;51.054;6.994;2022-10-16T00:35:10;19.20;;;18.40;;
8544;SDS011;4310;51.054;6.994;2022-10-16T00:36:15;18.80;;;17.98;;
8544;SDS011;4310;51.054;6.994;2022-10-16T00:37:19;18.62;;;17.82;;
8544;SDS011;4310;51.054;6.994;2022-10-16T00:38:22;18.23;;;17.42;;
8544;SDS011;4310;51.054;6.994;2022-10-16T00:39:26;17.48;;;16.57;;
8544;SDS011;4310;51.054;6.994;2022-10-16T00:41:41;17.97;;;17.27;;
8544;SDS011;4310;51.054;6.994;2022-10-16T00:42:45;18.80;;;17.82;;
8544;SDS011;4310;51.054;6.994;2022-10-16T00:43:49;18.42;;;17.55;;
8544;SDS011;4310;51.054;6.994;2022-10-16T00:44:53;16.85;;;16.10;;
8544;SDS011;4310;51.054;6.994;2022-10-16T00:45:59;15.95;;;15.18;;
8544;SDS011;4310;51.054;6.994;2022-10-16T00:47:03;15.20;;;14.30;;
8544;SDS011;4310;51.054;6.994;2022-10-16T00:48:07;16.32;;;15.53;;
8544;SDS011;4310;51.054;6.994;2022-10-16T00:49:13;14.38;;;13.78;;
8544;SDS011;4310;51.054;6.994;2022-10-16T00:50:18;14.83;;;14.13;;
8544;SDS011;4310;51.054;6.994;2022-10-16T00:51:24;15.45;;;14.75;;
8544;SDS011;4310;51.054;6.994;2022-10-16T00:52:28;17.20;;;16.30;;
8544;SDS011;4310;51.054;6.994;2022-10-16T00:53:32;16.52;;;15.68;;
8544;SDS011;4310;51.054;6.994;2022-10-16T00:54:36;20.20;;;19.30;;
8544;SDS011;4310;51.054;6.994;2022-10-16T00:55:40;19.75;;;18.85;;
8544;SDS011;4310;51.054;6.994;2022-10-16T00:56:43;21.67;;;20.67;;
8544;SDS011;4310;51.054;6.994;2022-10-16T00:58:59;24.40;;;23.12;;
8544;SDS011;4310;51.054;6.994;2022-10-16T01:00:06;27.22;;;26.02;;
8544;SDS011;4310;51.054;6.994;2022-10-16T01:01:10;26.70;;;25.50;;
8544;SDS011;4310;51.054;6.994;2022-10-16T01:02:14;29.40;;;28.00;;
8544;SDS011;4310;51.054;6.994;2022-10-16T01:03:23;30.77;;;29.35;;
8544;SDS011;4310;51.054;6.994;2022-10-16T01:04:28;31.85;;;30.45;;
8544;SDS011;4310;51.054;6.994;2022-10-16T01:05:33;33.30;;;31.80;;
8544;SDS011;4310;51.054;6.994;2022-10-16T01:06:39;34.33;;;32.85;;
8544;SDS011;4310;51.054;6.994;2022-10-16T01:07:44;35.50;;;34.00;;
8544;SDS011;4310;51.054;6.994;2022-10-16T01:08:52;35.45;;;33.95;;
8544;SDS011;4310;51.054;6.994;2022-10-16T01:09:57;35.98;;;34.43;;
8544;SDS011;4310;51.054;6.994;2022-10-16T01:11:04;34.88;;;33.20;;
8544;SDS011;4310;51.054;6.994;2022-10-16T01:12:09;35.47;;;33.97;;
8544;SDS011;4310;51.054;6.994;2022-10-16T01:13:13;35.03;;;33.53;;
8544;SDS011;4310;51.054;6.994;2022-10-16T01:14:22;36.30;;;34.60;;
8544;SDS011;4310;51.054;6.994;2022-10-16T01:15:26;37.33;;;35.70;;
8544;SDS011;4310;51.054;6.994;2022-10-16T01:16:31;37.40;;;35.85;;
8544;SDS011;4310;51.054;6.994;2022-10-16T01:17:37;36.80;;;35.30;;
8544;SDS011;4310;51.054;6.994;2022-10-16T01:18:42;33.78;;;32.38;;
8544;SDS011;4310;51.054;6.994;2022-10-16T01:19:52;36.10;;;34.60;;
8544;SDS011;4310;51.054;6.994;2022-10-16T01:22:07;34.40;;;32.90;;
8544;SDS011;4310;51.054;6.994;2022-10-16T01:23:18;34.30;;;32.80;;
8544;SDS011;4310;51.054;6.994;2022-10-16T01:24:25;36.60;;;35.00;;
8544;SDS011;4310;51.054;6.994;2022-10-16T01:25:30;37.25;;;35.65;;
8544;SDS011;4310;51.054;6.994;2022-10-16T01:26:40;35.78;;;34.27;;
8544;SDS011;4310;51.054;6.994;2022-10-16T01:27:43;35.03;;;33.53;;
8544;SDS011;4310;51.054;6.994;2022-10-16T01:28:49;35.10;;;33.60;;
8544;SDS011;4310;51.054;6.994;2022-10-16T01:29:54;36.15;;;34.65;;
8544;SDS011;4310;51.054;6.994;2022-10-16T01:30:59;34.38;;;32.98;;
8544;SDS011;4310;51.054;6.994;2022-10-16T01:32:07;35.35;;;33.85;;
8544;SDS011;4310;51.054;6.994;2022-10-16T01:33:12;36.23;;;34.73;;
8544;SDS011;4310;51.054;6.994;2022-10-16T01:34:16;37.43;;;35.83;;
8544;SDS011;4310;51.054;6.994;2022-10-16T01:35:22;34.58;;;33.18;;
8544;SDS011;4310;51.054;6.994;2022-10-16T01:36:27;33.78;;;32.38;;
8544;SDS011;4310;51.054;6.994;2022-10-16T01:37:33;33.28;;;31.87;;
8544;SDS011;4310;51.054;6.994;2022-10-16T01:38:38;33.47;;;32.07;;
8544;SDS011;4310;51.054;6.994;2022-10-16T01:39:42;33.48;;;32.05;;
8544;SDS011;4310;51.054;6.994;2022-10-16T01:40:49;34.58;;;32.98;;
8544;SDS011;4310;51.054;6.994;2022-10-16T01:41:54;32.65;;;31.20;;
8544;SDS011;4310;51.054;6.994;2022-10-16T01:42:59;34.33;;;32.93;;
8544;SDS011;4310;51.054;6.994;2022-10-16T01:44:03;32.60;;;31.27;;
8544;SDS011;4310;51.054;6.994;2022-10-16T01:45:08;34.18;;;32.75;;
8544;SDS011;4310;51.054;6.994;2022-10-16T01:46:14;35.17;;;33.78;;
8544;SDS011;4310;51.054;6.994;2022-10-16T01:47:19;33.43;;;32.03;;
8544;SDS011;4310;51.054;6.994;2022-10-16T01:48:23;34.27;;;32.88;;
8544;SDS011;4310;51.054;6.994;2022-10-16T01:49:27;32.45;;;31.07;;
8544;SDS011;4310;51.054;6.994;2022-10-16T01:50:32;32.05;;;30.68;;
8544;SDS011;4310;51.054;6.994;2022-10-16T01:51:37;33.75;;;32.30;;
8544;SDS011;4310;51.054;6.994;2022-10-16T01:52:42;32.78;;;31.48;;
8544;SDS011;4310;51.054;6.994;2022-10-16T01:53:54;31.48;;;30.17;;
8544;SDS011;4310;51.054;6.994;2022-10-16T01:54:52;32.05;;;30.75;;
8544;SDS011;4310;51.054;6.994;2022-10-16T01:55:57;31.95;;;30.65;;
8544;SDS011;4310;51.054;6.994;2022-10-16T01:57:02;30.80;;;29.60;;
8544;SDS011;4310;51.054;6.994;2022-10-16T01:58:08;29.17;;;27.87;;
8544;SDS011;4310;51.054;6.994;2022-10-16T01:59:13;31.20;;;29.50;;
8544;SDS011;4310;51.054;6.994;2022-10-16T02:00:18;30.80;;;29.50;;
8544;SDS011;4310;51.054;6.994;2022-10-16T02:01:24;31.62;;;30.32;;
8544;SDS011;4310;51.054;6.994;2022-10-16T02:02:28;31.12;;;29.72;;
8544;SDS011;4310;51.054;6.994;2022-10-16T02:03:33;28.52;;;27.40;;
8544;SDS011;4310;51.054;6.994;2022-10-16T02:04:38;30.95;;;29.55;;
8544;SDS011;4310;51.054;6.994;2022-10-16T02:05:44;30.92;;;29.52;;
8544;SDS011;4310;51.054;6.994;2022-10-16T02:06:48;30.32;;;29.02;;
8544;SDS011;4310;51.054;6.994;2022-10-16T02:07:52;32.88;;;31.42;;
8544;SDS011;4310;51.054;6.994;2022-10-16T02:10:08;30.92;;;29.67;;
8544;SDS011;4310;51.054;6.994;2022-10-16T02:11:13;32.03;;;30.72;;
8544;SDS011;4310;51.054;6.994;2022-10-16T02:12:19;32.48;;;31.17;;
8544;SDS011;4310;51.054;6.994;2022-10-16T02:13:25;33.00;;;31.60;;
8544;SDS011;4310;51.054;6.994;2022-10-16T02:14:30;34.63;;;33.23;;
8544;SDS011;4310;51.054;6.994;2022-10-16T02:15:34;34.27;;;32.78;;
8544;SDS011;4310;51.054;6.994;2022-10-16T02:16:38;33.50;;;32.10;;
8544;SDS011;4310;51.054;6.994;2022-10-16T02:17:42;33.35;;;31.77;;
8544;SDS011;4310;51.054;6.994;2022-10-16T02:18:46;34.88;;;33.28;;
8544;SDS011;4310;51.054;6.994;2022-10-16T02:19:50;33.35;;;31.95;;
8544;SDS011;4310;51.054;6.994;2022-10-16T02:20:56;33.85;;;32.45;;
8544;SDS011;4310;51.054;6.994;2022-10-16T02:22:02;32.90;;;31.52;;
8544;SDS011;4310;51.054;6.994;2022-10-16T02:23:06;35.55;;;33.75;;
8544;SDS011;4310;51.054;6.994;2022-10-16T02:26:36;40.28;;;38.15;;
8544;SDS011;4310;51.054;6.994;2022-10-16T02:27:43;39.55;;;37.55;;
8544;SDS011;4310;51.054;6.994;2022-10-16T02:28:46;39.15;;;37.03;;
8544;SDS011;4310;51.054;6.994;2022-10-16T02:29:52;39.78;;;37.67;;
8544;SDS011;4310;51.054;6.994;2022-10-16T02:30:59;40.03;;;37.87;;
8544;SDS011;4310;51.054;6.994;2022-10-16T02:32:03;39.23;;;37.20;;
8544;SDS011;4310;51.054;6.994;2022-10-16T02:33:08;37.35;;;35.48;;
8544;SDS011;4310;51.054;6.994;2022-10-16T02:34:13;39.20;;;37.40;;
8544;SDS011;4310;51.054;6.994;2022-10-16T02:35:18;36.55;;;34.65;;
8544;SDS011;4310;51.054;6.994;2022-10-16T02:36:23;37.78;;;36.08;;
8544;SDS011;4310;51.054;6.994;2022-10-16T02:37:27;36.42;;;34.23;;
8544;SDS011;4310;51.054;6.994;2022-10-16T02:38:31;36.08;;;34.43;;
8544;SDS011;4310;51.054;6.994;2022-10-16T02:39:35;33.80;;;32.10;;
8544;SDS011;4310;51.054;6.994;2022-10-16T02:40:40;35.52;;;33.80;;
8544;SDS011;4310;51.054;6.994;2022-10-16T02:41:44;32.58;;;30.80;;
8544;SDS011;4310;51.054;6.994;2022-10-16T02:44:01;34.67;;;32.98;;
8544;SDS011;4310;51.054;6.994;2022-10-16T02:45:05;33.78;;;32.28;;
8544;SDS011;4310;51.054;6.994;2022-10-16T02:46:09;34.63;;;33.13;;
8544;SDS011;4310;51.054;6.994;2022-10-16T02:47:13;33.78;;;32.20;;
8544;SDS011;4310;51.054;6.994;2022-10-16T02:48:17;33.18;;;31.57;;
8544;SDS011;4310;51.054;6.994;2022-10-16T02:49:21;33.28;;;31.68;;
8544;SDS011;4310;51.054;6.994;2022-10-16T02:50:24;34.25;;;32.83;;
8544;SDS011;4310;51.054;6.994;2022-10-16T02:51:28;35.35;;;33.85;;
8544;SDS011;4310;51.054;6.994;2022-10-16T02:52:32;34.90;;;33.35;;
8544;SDS011;4310;51.054;6.994;2022-10-16T02:53:35;34.73;;;33.33;;
8544;SDS011;4310;51.054;6.994;2022-10-16T02:54:39;34.83;;;33.33;;
8544;SDS011;4310;51.054;6.994;2022-10-16T02:55:43;35.20;;;33.78;;
8544;SDS011;4310;51.054;6.994;2022-10-16T02:56:46;37.17;;;35.60;;
8544;SDS011;4310;51.054;6.994;2022-10-16T02:57:50;35.13;;;33.63;;
8544;SDS011;4310;51.054;6.994;2022-10-16T02:58:54;33.25;;;31.85;;
8544;SDS011;4310;51.054;6.994;2022-10-16T02:59:58;33.70;;;32.30;;
8544;SDS011;4310;51.054;6.994;2022-10-16T03:01:02;35.65;;;34.10;;
8544;SDS011;4310;51.054;6.994;2022-10-16T03:02:05;33.73;;;32.25;;
8544;SDS011;4310;51.054;6.994;2022-10-16T03:03:09;35.52;;;34.10;;
8544;SDS011;4310;51.054;6.994;2022-10-16T03:04:14;35.60;;;34.20;;
8544;SDS011;4310;51.054;6.994;2022-10-16T03:05:18;35.30;;;33.80;;
8544;SDS011;4310;51.054;6.994;2022-10-16T03:06:21;37.35;;;35.75;;
8544;SDS011;4310;51.054;6.994;2022-10-16T03:07:25;37.10;;;35.60;;
8544;SDS011;4310;51.054;6.994;2022-10-16T03:08:29;38.83;;;37.03;;
8544;SDS011;4310;51.054;6.994;2022-10-16T03:09:33;37.23;;;35.63;;
8544;SDS011;4310;51.054;6.994;2022-10-16T03:11:48;38.73;;;36.90;;
8544;SDS011;4310;51.054;6.994;2022-10-16T03:14:03;38.78;;;37.08;;
8544;SDS011;4310;51.054;6.994;2022-10-16T03:16:19;39.98;;;38.28;;
8544;SDS011;4310;51.054;6.994;2022-10-16T03:17:23;38.45;;;36.88;;
8544;SDS011;4310;51.054;6.994;2022-10-16T03:18:27;38.33;;;36.73;;
8544;SDS011;4310;51.054;6.994;2022-10-16T03:19:30;37.00;;;35.40;;
8544;SDS011;4310;51.054;6.994;2022-10-16T03:20:34;35.88;;;34.38;;
8544;SDS011;4310;51.054;6.994;2022-10-16T03:21:38;34.92;;;33.25;;
8544;SDS011;4310;51.054;6.994;2022-10-16T03:23:53;34.23;;;32.65;;
8544;SDS011;4310;51.054;6.994;2022-10-16T03:24:57;36.20;;;34.63;;
8544;SDS011;4310;51.054;6.994;2022-10-16T03:26:01;36.77;;;35.17;;
8544;SDS011;4310;51.054;6.994;2022-10-16T03:27:05;35.48;;;33.83;;
8544;SDS011;4310;51.054;6.994;2022-10-16T03:28:08;36.58;;;34.67;;
8544;SDS011;4310;51.054;6.994;2022-10-16T03:29:12;36.98;;;35.28;;
8544;SDS011;4310;51.054;6.994;2022-10-16T03:30:16;37.95;;;36.45;;
8544;SDS011;4310;51.054;6.994;2022-10-16T03:31:20;36.03;;;34.50;;
8544;SDS011;4310;51.054;6.994;2022-10-16T03:32:24;36.35;;;34.67;;
8544;SDS011;4310;51.054;6.994;2022-10-16T03:33:27;37.23;;;35.65;;
8544;SDS011;4310;51.054;6.994;2022-10-16T03:34:31;37.20;;;35.70;;
8544;SDS011;4310;51.054;6.994;2022-10-16T03:35:35;35.78;;;34.27;;
8544;SDS011;4310;51.054;6.994;2022-10-16T03:36:39;38.30;;;36.58;;
8544;SDS011;4310;51.054;6.994;2022-10-16T03:37:42;35.95;;;34.45;;
8544;SDS011;4310;51.054;6.994;2022-10-16T03:38:46;38.02;;;36.28;;
8544;SDS011;4310;51.054;6.994;2022-10-16T03:39:50;37.08;;;35.33;;
8544;SDS011;4310;51.054;6.994;2022-10-16T03:40:54;37.35;;;35.55;;
8544;SDS011;4310;51.054;6.994;2022-10-16T03:41:57;37.25;;;35.65;;
8544;SDS011;4310;51.054;6.994;2022-10-16T03:43:01;37.57;;;35.83;;
8544;SDS011;4310;51.054;6.994;2022-10-16T03:44:05;37.65;;;36.05;;
8544;SDS011;4310;51.054;6.994;2022-10-16T03:45:09;37.03;;;35.30;;
8544;SDS011;4310;51.054;6.994;2022-10-16T03:46:13;38.40;;;36.50;;
8544;SDS011;4310;51.054;6.994;2022-10-16T03:47:17;37.55;;;35.65;;
8544;SDS011;4310;51.054;6.994;2022-10-16T03:48:22;36.30;;;34.70;;
8544;SDS011;4310;51.054;6.994;2022-10-16T03:49:26;37.63;;;36.03;;
8544;SDS011;4310;51.054;6.994;2022-10-16T03:50:29;37.63;;;36.03;;
8544;SDS011;4310;51.054;6.994;2022-10-16T03:51:33;36.50;;;35.00;;
8544;SDS011;4310;51.054;6.994;2022-10-16T03:52:37;37.13;;;35.52;;
8544;SDS011;4310;51.054;6.994;2022-10-16T03:53:40;38.05;;;36.35;;
8544;SDS011;4310;51.054;6.994;2022-10-16T03:54:44;39.25;;;37.45;;
8544;SDS011;4310;51.054;6.994;2022-10-16T03:55:48;37.48;;;35.88;;
8544;SDS011;4310;51.054;6.994;2022-10-16T03:56:52;37.78;;;36.08;;
8544;SDS011;4310;51.054;6.994;2022-10-16T03:57:55;38.90;;;37.17;;
8544;SDS011;4310;51.054;6.994;2022-10-16T03:58:59;38.95;;;37.25;;
8544;SDS011;4310;51.054;6.994;2022-10-16T04:00:03;40.17;;;38.30;;
8544;SDS011;4310;51.054;6.994;2022-10-16T04:01:07;40.78;;;39.08;;
8544;SDS011;4310;51.054;6.994;2022-10-16T04:02:11;40.88;;;39.03;;
8544;SDS011;4310;51.054;6.994;2022-10-16T04:03:14;40.55;;;38.92;;
8544;SDS011;4310;51.054;6.994;2022-10-16T04:04:18;40.60;;;38.80;;
8544;SDS011;4310;51.054;6.994;2022-10-16T04:05:22;39.03;;;37.33;;
8544;SDS011;4310;51.054;6.994;2022-10-16T04:06:26;40.92;;;38.83;;
8544;SDS011;4310;51.054;6.994;2022-10-16T04:07:29;41.70;;;39.98;;
8544;SDS011;4310;51.054;6.994;2022-10-16T04:08:33;42.58;;;40.78;;
8544;SDS011;4310;51.054;6.994;2022-10-16T04:09:38;42.60;;;40.80;;
8544;SDS011;4310;51.054;6.994;2022-10-16T04:10:42;42.15;;;40.30;;
8544;SDS011;4310;51.054;6.994;2022-10-16T04:11:46;40.58;;;38.88;;
8544;SDS011;4310;51.054;6.994;2022-10-16T04:14:01;39.00;;;37.40;;
8544;SDS011;4310;51.054;6.994;2022-10-16T04:15:06;38.85;;;37.17;;
8544;SDS011;4310;51.054;6.994;2022-10-16T04:16:09;36.87;;;35.17;;
8544;SDS011;4310;51.054;6.994;2022-10-16T04:17:13;37.08;;;35.33;;
8544;SDS011;4310;51.054;6.994;2022-10-16T04:18:17;37.60;;;35.90;;
8544;SDS011;4310;51.054;6.994;2022-10-16T04:19:20;36.28;;;34.75;;
8544;SDS011;4310;51.054;6.994;2022-10-16T04:20:24;37.23;;;35.63;;
8544;SDS011;4310;51.054;6.994;2022-10-16T04:21:28;38.40;;;36.75;;
8544;SDS011;4310;51.054;6.994;2022-10-16T04:23:43;35.90;;;34.20;;
8544;SDS011;4310;51.054;6.994;2022-10-16T04:24:47;38.42;;;36.53;;
8544;SDS011;4310;51.054;6.994;2022-10-16T04:25:51;37.67;;;35.88;;
8544;SDS011;4310;51.054;6.994;2022-10-16T04:26:54;37.38;;;35.68;;
8544;SDS011;4310;51.054;6.994;2022-10-16T04:27:58;37.95;;;36.35;;
8544;SDS011;4310;51.054;6.994;2022-10-16T04:29:02;36.98;;;35.48;;
8544;SDS011;4310;51.054;6.994;2022-10-16T04:30:06;37.58;;;35.98;;
8544;SDS011;4310;51.054;6.994;2022-10-16T04:31:10;39.67;;;38.02;;
8544;SDS011;4310;51.054;6.994;2022-10-16T04:32:14;38.25;;;36.65;;
8544;SDS011;4310;51.054;6.994;2022-10-16T04:33:18;38.60;;;37.00;;
8544;SDS011;4310;51.054;6.994;2022-10-16T04:35:44;39.80;;;38.10;;
8544;SDS011;4310;51.054;6.994;2022-10-16T04:36:48;39.20;;;37.60;;
8544;SDS011;4310;51.054;6.994;2022-10-16T04:37:52;39.10;;;37.30;;
8544;SDS011;4310;51.054;6.994;2022-10-16T04:38:56;38.70;;;36.77;;
8544;SDS011;4310;51.054;6.994;2022-10-16T04:39:59;38.40;;;36.65;;
8544;SDS011;4310;51.054;6.994;2022-10-16T04:41:03;37.53;;;36.00;;
8544;SDS011;4310;51.054;6.994;2022-10-16T04:42:07;37.80;;;36.23;;
8544;SDS011;4310;51.054;6.994;2022-10-16T04:44:22;36.10;;;34.60;;
8544;SDS011;4310;51.054;6.994;2022-10-16T04:45:26;35.28;;;33.85;;
8544;SDS011;4310;51.054;6.994;2022-10-16T04:46:29;36.65;;;35.15;;
8544;SDS011;4310;51.054;6.994;2022-10-16T04:47:33;35.60;;;34.13;;
8544;SDS011;4310;51.054;6.994;2022-10-16T04:48:37;36.58;;;34.90;;
8544;SDS011;4310;51.054;6.994;2022-10-16T04:49:40;35.48;;;33.95;;
8544;SDS011;4310;51.054;6.994;2022-10-16T04:50:44;38.20;;;36.60;;
8544;SDS011;4310;51.054;6.994;2022-10-16T04:51:48;39.30;;;37.58;;
8544;SDS011;4310;51.054;6.994;2022-10-16T04:52:52;38.95;;;37.08;;
8544;SDS011;4310;51.054;6.994;2022-10-16T04:53:55;38.80;;;37.10;;
8544;SDS011;4310;51.054;6.994;2022-10-16T04:54:59;38.80;;;37.00;;
8544;SDS011;4310;51.054;6.994;2022-10-16T04:56:05;39.70;;;38.00;;
8544;SDS011;4310;51.054;6.994;2022-10-16T04:57:09;38.48;;;36.88;;
8544;SDS011;4310;51.054;6.994;2022-10-16T04:58:12;37.95;;;36.38;;
8544;SDS011;4310;51.054;6.994;2022-10-16T04:59:16;40.25;;;38.45;;
8544;SDS011;4310;51.054;6.994;2022-10-16T05:00:20;39.23;;;37.35;;
8544;SDS011;4310;51.054;6.994;2022-10-16T05:01:24;38.65;;;37.05;;
8544;SDS011;4310;51.054;6.994;2022-10-16T05:02:28;37.00;;;35.50;;
8544;SDS011;4310;51.054;6.994;2022-10-16T05:03:32;37.88;;;36.20;;
8544;SDS011;4310;51.054;6.994;2022-10-16T05:04:36;39.15;;;37.45;;
8544;SDS011;4310;51.054;6.994;2022-10-16T05:06:53;38.65;;;36.83;;
8544;SDS011;4310;51.054;6.994;2022-10-16T05:07:57;38.35;;;36.70;;
8544;SDS011;4310;51.054;6.994;2022-10-16T05:09:01;37.60;;;36.10;;
8544;SDS011;4310;51.054;6.994;2022-10-16T05:10:05;38.05;;;36.55;;
8544;SDS011;4310;51.054;6.994;2022-10-16T05:11:09;38.63;;;36.93;;
8544;SDS011;4310;51.054;6.994;2022-10-16T05:12:13;38.13;;;36.53;;
8544;SDS011;4310;51.054;6.994;2022-10-16T05:13:16;40.60;;;38.92;;
8544;SDS011;4310;51.054;6.994;2022-10-16T05:14:20;40.73;;;38.75;;
8544;SDS011;4310;51.054;6.994;2022-10-16T05:15:24;39.75;;;37.93;;
8544;SDS011;4310;51.054;6.994;2022-10-16T05:16:28;40.30;;;38.33;;
8544;SDS011;4310;51.054;6.994;2022-10-16T05:17:32;40.85;;;39.25;;
8544;SDS011;4310;51.054;6.994;2022-10-16T05:19:47;42.03;;;40.03;;
8544;SDS011;4310;51.054;6.994;2022-10-16T05:20:51;41.40;;;39.70;;
8544;SDS011;4310;51.054;6.994;2022-10-16T05:21:56;42.38;;;40.52;;
8544;SDS011;4310;51.054;6.994;2022-10-16T05:22:59;41.60;;;39.80;;
8544;SDS011;4310;51.054;6.994;2022-10-16T05:25:15;42.78;;;40.90;;
8544;SDS011;4310;51.054;6.994;2022-10-16T05:26:19;43.87;;;42.08;;
8544;SDS011;4310;51.054;6.994;2022-10-16T05:27:23;45.85;;;43.95;;
8544;SDS011;4310;51.054;6.994;2022-10-16T05:29:38;44.33;;;42.43;;
8544;SDS011;4310;51.054;6.994;2022-10-16T05:30:42;47.08;;;45.08;;
8544;SDS011;4310;51.054;6.994;2022-10-16T05:31:45;46.68;;;44.53;;
8544;SDS011;4310;51.054;6.994;2022-10-16T05:34:01;46.25;;;44.20;;
8544;SDS011;4310;51.054;6.994;2022-10-16T05:35:05;46.65;;;44.58;;
8544;SDS011;4310;51.054;6.994;2022-10-16T05:36:09;45.52;;;43.52;;
8544;SDS011;4310;51.054;6.994;2022-10-16T05:37:13;44.45;;;42.55;;
8544;SDS011;4310;51.054;6.994;2022-10-16T05:38:17;45.00;;;42.93;;
8544;SDS011;4310;51.054;6.994;2022-10-16T05:40:32;43.50;;;41.65;;
8544;SDS011;4310;51.054;6.994;2022-10-16T05:41:36;40.85;;;39.05;;
8544;SDS011;4310;51.054;6.994;2022-10-16T05:42:40;44.03;;;41.98;;
8544;SDS011;4310;51.054;6.994;2022-10-16T05:43:45;41.50;;;39.90;;
8544;SDS011;4310;51.054;6.994;2022-10-16T05:44:48;42.25;;;40.45;;
8544;SDS011;4310;51.054;6.994;2022-10-16T05:47:07;42.20;;;40.40;;
8544;SDS011;4310;51.054;6.994;2022-10-16T05:48:11;42.15;;;40.35;;
8544;SDS011;4310;51.054;6.994;2022-10-16T05:49:14;41.55;;;39.85;;
8544;SDS011;4310;51.054;6.994;2022-10-16T05:50:18;40.17;;;38.58;;
8544;SDS011;4310;51.054;6.994;2022-10-16T05:51:22;44.90;;;43.10;;
8544;SDS011;4310;51.054;6.994;2022-10-16T05:52:26;43.80;;;41.90;;
8544;SDS011;4310;51.054;6.994;2022-10-16T05:53:31;45.15;;;43.25;;
8544;SDS011;4310;51.054;6.994;2022-10-16T05:54:35;45.67;;;43.78;;
8544;SDS011;4310;51.054;6.994;2022-10-16T05:55:39;44.15;;;42.25;;
8544;SDS011;4310;51.054;6.994;2022-10-16T05:56:43;44.95;;;43.15;;
8544;SDS011;4310;51.054;6.994;2022-10-16T05:57:46;44.08;;;42.17;;
8544;SDS011;4310;51.054;6.994;2022-10-16T05:58:50;43.68;;;41.77;;
8544;SDS011;4310;51.054;6.994;2022-10-16T05:59:54;46.25;;;44.27;;
8544;SDS011;4310;51.054;6.994;2022-10-16T06:00:58;47.00;;;45.00;;
8544;SDS011;4310;51.054;6.994;2022-10-16T06:02:02;47.58;;;45.50;;
8544;SDS011;4310;51.054;6.994;2022-10-16T06:03:06;45.05;;;43.15;;
8544;SDS011;4310;51.054;6.994;2022-10-16T06:04:10;42.58;;;40.67;;
8544;SDS011;4310;51.054;6.994;2022-10-16T06:05:14;43.80;;;41.88;;
8544;SDS011;4310;51.054;6.994;2022-10-16T06:06:18;44.63;;;42.73;;
8544;SDS011;4310;51.054;6.994;2022-10-16T06:07:22;45.30;;;43.50;;
8544;SDS011;4310;51.054;6.994;2022-10-16T06:08:26;45.23;;;43.27;;
8544;SDS011;4310;51.054;6.994;2022-10-16T06:09:30;48.65;;;46.65;;
8544;SDS011;4310;51.054;6.994;2022-10-16T06:10:33;47.17;;;45.17;;
8544;SDS011;4310;51.054;6.994;2022-10-16T06:11:37;46.18;;;44.27;;
8544;SDS011;4310;51.054;6.994;2022-10-16T06:12:41;43.63;;;41.73;;
8544;SDS011;4310;51.054;6.994;2022-10-16T06:13:45;44.60;;;42.62;;
8544;SDS011;4310;51.054;6.994;2022-10-16T06:14:49;45.48;;;43.58;;
8544;SDS011;4310;51.054;6.994;2022-10-16T06:17:05;46.33;;;44.33;;
8544;SDS011;4310;51.054;6.994;2022-10-16T06:18:08;45.33;;;43.52;;
8544;SDS011;4310;51.054;6.994;2022-10-16T06:19:12;45.40;;;43.70;;
8544;SDS011;4310;51.054;6.994;2022-10-16T06:20:16;46.02;;;43.92;;
8544;SDS011;4310;51.054;6.994;2022-10-16T06:21:20;43.65;;;41.85;;
8544;SDS011;4310;51.054;6.994;2022-10-16T06:22:24;45.78;;;43.85;;
8544;SDS011;4310;51.054;6.994;2022-10-16T06:24:40;41.08;;;39.45;;
8544;SDS011;4310;51.054;6.994;2022-10-16T06:25:43;40.78;;;39.08;;
8544;SDS011;4310;51.054;6.994;2022-10-16T06:26:47;43.05;;;41.28;;
8544;SDS011;4310;51.054;6.994;2022-10-16T06:27:51;43.68;;;41.88;;
8544;SDS011;4310;51.054;6.994;2022-10-16T06:30:07;40.78;;;39.08;;
8544;SDS011;4310;51.054;6.994;2022-10-16T06:31:11;40.30;;;38.60;;
8544;SDS011;4310;51.054;6.994;2022-10-16T06:32:15;37.67;;;36.08;;
8544;SDS011;4310;51.054;6.994;2022-10-16T06:33:19;36.30;;;34.80;;
8544;SDS011;4310;51.054;6.994;2022-10-16T06:34:23;37.70;;;36.20;;
8544;SDS011;4310;51.054;6.994;2022-10-16T06:36:38;37.58;;;35.98;;
8544;SDS011;4310;51.054;6.994;2022-10-16T06:37:42;34.98;;;33.48;;
8544;SDS011;4310;51.054;6.994;2022-10-16T06:39:57;33.48;;;31.97;;
8544;SDS011;4310;51.054;6.994;2022-10-16T06:41:02;31.27;;;29.87;;
8544;SDS011;4310;51.054;6.994;2022-10-16T06:42:06;34.00;;;32.50;;
8544;SDS011;4310;51.054;6.994;2022-10-16T06:44:21;32.15;;;30.75;;
8544;SDS011;4310;51.054;6.994;2022-10-16T06:45:25;32.30;;;30.77;;
8544;SDS011;4310;51.054;6.994;2022-10-16T06:46:28;32.33;;;30.92;;
8544;SDS011;4310;51.054;6.994;2022-10-16T06:47:32;32.50;;;31.10;;
8544;SDS011;4310;51.054;6.994;2022-10-16T06:49:47;29.60;;;28.40;;
8544;SDS011;4310;51.054;6.994;2022-10-16T06:51:01;31.42;;;30.08;;
8544;SDS011;4310;51.054;6.994;2022-10-16T06:52:04;31.52;;;30.17;;
8544;SDS011;4310;51.054;6.994;2022-10-16T06:54:20;30.92;;;29.63;;
8544;SDS011;4310;51.054;6.994;2022-10-16T06:55:23;29.98;;;28.77;;
8544;SDS011;4310;51.054;6.994;2022-10-16T06:56:27;28.23;;;27.13;;
8544;SDS011;4310;51.054;6.994;2022-10-16T06:58:43;28.65;;;27.45;;
8544;SDS011;4310;51.054;6.994;2022-10-16T06:59:47;26.52;;;25.12;;
8544;SDS011;4310;51.054;6.994;2022-10-16T07:00:55;26.90;;;25.60;;
8544;SDS011;4310;51.054;6.994;2022-10-16T07:03:11;25.97;;;24.77;;
8544;SDS011;4310;51.054;6.994;2022-10-16T07:04:15;26.02;;;24.75;;
8544;SDS011;4310;51.054;6.994;2022-10-16T07:05:18;25.65;;;24.37;;
8544;SDS011;4310;51.054;6.994;2022-10-16T07:07:34;24.23;;;23.22;;
8544;SDS011;4310;51.054;6.994;2022-10-16T07:08:38;21.27;;;20.27;;